Porto, Portugal
Current Conditions -  °F | °C
As of 6:30 AM on Thursday 27 Nov 2014 (Local Time) from LPPR Reporting Station
Light Rain Light Rain  
Wind Chill: 54°   Ceiling: 4800
Heat Index: 54°   Visibility: 5mi
Dew Point: 46°   Wind: 7mph
Humidity: 77%   Direction: 120°ESE
Pressure: 29.53"   Gusts: NA
Location:  41.15°N, 8.62°W
Report Text: LPPR 270630Z 12006KT 8000 -RA BKN048 12/08 Q1000
Loading
Personal Weather Stations






























Interactive Weather Map New forecast layout! Learn more

10-Day Weather Forecast

Advertisements
Track Severe Weather on mobile